createdAt,value
2023-04-25T00:00:56.658Z,8.50
2023-04-25T00:01:58.616Z,4.75
2023-04-25T00:03:01.342Z,8.00
2023-04-25T00:04:03.490Z,7.00
2023-04-25T00:05:07.929Z,8.00
2023-04-25T00:06:09.425Z,8.50
2023-04-25T00:07:12.145Z,6.00
2023-04-25T00:08:13.549Z,6.00
2023-04-25T00:09:16.274Z,6.50
2023-04-25T00:10:17.829Z,7.00
2023-04-25T00:11:20.229Z,7.50
2023-04-25T00:12:23.730Z,8.00
2023-04-25T00:13:26.500Z,6.00
2023-04-25T00:14:28.784Z,7.50
2023-04-25T00:15:32.036Z,4.75
2023-04-25T00:16:35.839Z,4.00
2023-04-25T00:17:39.333Z,4.75
2023-04-25T00:18:41.635Z,7.00
2023-04-25T00:19:45.612Z,4.25
2023-04-25T00:20:48.379Z,6.00
2023-04-25T00:21:50.939Z,3.75
2023-04-25T00:22:53.787Z,4.25
2023-04-25T00:23:56.271Z,4.00
2023-04-25T00:24:58.304Z,6.00
2023-04-25T00:26:00.744Z,6.00
2023-04-25T00:27:02.193Z,3.25
2023-04-25T00:28:04.730Z,6.00
2023-04-25T00:29:06.168Z,6.00
2023-04-25T00:30:09.215Z,6.00
2023-04-25T00:31:11.076Z,4.25
2023-04-25T00:32:13.492Z,6.50
2023-04-25T00:33:14.942Z,8.00
2023-04-25T00:34:17.364Z,4.00
2023-04-25T00:35:18.900Z,6.00
2023-04-25T00:36:22.663Z,4.50
2023-04-25T00:37:24.108Z,6.00
2023-04-25T00:38:26.799Z,6.00
2023-04-25T00:39:28.265Z,4.00
2023-04-25T00:40:30.663Z,4.25
2023-04-25T00:41:32.132Z,7.50
2023-04-25T00:42:34.526Z,8.00
2023-04-25T00:43:36.144Z,6.00
2023-04-25T00:44:38.591Z,5.75
2023-04-25T00:45:40.065Z,5.25
2023-04-25T00:46:42.602Z,4.00
2023-04-25T00:47:44.239Z,8.00
2023-04-25T00:48:46.754Z,6.00
2023-04-25T00:49:48.151Z,6.00
2023-04-25T00:50:51.341Z,6.00
2023-04-25T00:51:54.126Z,6.00
2023-04-25T00:52:56.495Z,6.50
2023-04-25T00:53:57.917Z,8.00
2023-04-25T00:55:00.380Z,8.25
2023-04-25T00:56:01.910Z,6.00
2023-04-25T00:57:04.483Z,7.00
2023-04-25T00:58:06.016Z,6.00
2023-04-25T00:59:08.435Z,4.75
2023-04-25T01:00:10.635Z,8.00
2023-04-25T01:01:13.675Z,8.50
2023-04-25T01:02:15.329Z,6.00
2023-04-25T01:03:18.370Z,6.00
2023-04-25T01:04:20.005Z,5.75
2023-04-25T01:05:22.804Z,6.00
2023-04-25T01:06:24.232Z,6.50
2023-04-25T01:07:28.188Z,6.00
2023-04-25T01:08:29.634Z,6.00
2023-04-25T01:09:32.249Z,6.00
2023-04-25T01:10:33.664Z,5.25
2023-04-25T01:11:36.262Z,6.00
2023-04-25T01:12:37.757Z,4.75
2023-04-25T01:13:40.294Z,4.00
2023-04-25T01:14:41.720Z,5.75
2023-04-25T01:15:44.798Z,4.00
2023-04-25T01:16:46.249Z,5.25
2023-04-25T01:17:50.381Z,5.25
2023-04-25T01:18:52.229Z,6.00
2023-04-25T01:19:54.926Z,6.00
2023-04-25T01:20:56.618Z,4.00
2023-04-25T01:22:00.817Z,6.00
2023-04-25T01:23:03.395Z,5.50
2023-04-25T01:24:06.153Z,6.00
2023-04-25T01:25:08.081Z,3.25
2023-04-25T01:26:10.833Z,5.00
2023-04-25T01:27:12.237Z,5.25
2023-04-25T01:28:14.674Z,6.00
2023-04-25T01:29:16.371Z,6.00
2023-04-25T01:30:18.949Z,4.00
2023-04-25T01:31:20.581Z,5.75
2023-04-25T01:32:23.142Z,6.00
2023-04-25T01:33:24.649Z,7.50
2023-04-25T01:34:27.297Z,6.50
2023-04-25T01:35:28.743Z,6.00
2023-04-25T01:36:31.513Z,7.50
2023-04-25T01:37:34.908Z,6.00
2023-04-25T01:38:37.486Z,4.00
2023-04-25T01:39:38.931Z,6.00
2023-04-25T01:40:41.557Z,6.00
2023-04-25T01:41:43.009Z,6.00
2023-04-25T01:42:45.460Z,6.00
2023-04-25T01:43:46.874Z,6.00
2023-04-25T01:44:49.279Z,6.50
2023-04-25T01:45:50.821Z,4.50
2023-04-25T01:46:53.353Z,6.00
2023-04-25T01:47:54.800Z,6.00
2023-04-25T01:48:57.196Z,4.25
2023-04-25T01:49:58.593Z,5.75
2023-04-25T01:51:01.009Z,6.00
2023-04-25T01:52:02.446Z,4.00
2023-04-25T01:53:06.382Z,6.00
2023-04-25T01:54:08.309Z,6.00
2023-04-25T01:55:11.214Z,4.00
2023-04-25T01:56:13.581Z,6.00
2023-04-25T01:57:15.097Z,5.25
2023-04-25T01:58:17.505Z,6.00
2023-04-25T01:59:19.351Z,6.00
2023-04-25T02:00:22.021Z,6.00
2023-04-25T02:01:23.500Z,6.00
2023-04-25T02:02:26.120Z,6.00
2023-04-25T02:03:27.804Z,6.50
2023-04-25T02:04:30.463Z,5.75
2023-04-25T02:05:35.082Z,8.00
2023-04-25T02:06:37.495Z,8.00
2023-04-25T02:07:38.903Z,7.50
2023-04-25T02:08:42.762Z,8.00
2023-04-25T02:09:44.173Z,7.50
2023-04-25T02:10:46.700Z,8.00
2023-04-25T02:11:48.099Z,8.00
2023-04-25T02:12:50.557Z,5.25
2023-04-25T02:13:52.078Z,6.00
2023-04-25T02:14:54.711Z,6.00
2023-04-25T02:15:56.176Z,8.00
2023-04-25T02:16:59.366Z,6.00
2023-04-25T02:18:01.222Z,8.00
2023-04-25T02:19:03.769Z,7.50
2023-04-25T02:20:06.394Z,7.00
2023-04-25T02:21:08.841Z,4.75
2023-04-25T02:22:11.409Z,9.50
2023-04-25T02:23:13.868Z,6.00
2023-04-25T02:24:16.702Z,6.00
2023-04-25T02:25:20.657Z,6.00
2023-04-25T02:26:22.076Z,6.00
2023-04-25T02:27:24.447Z,8.00
2023-04-25T02:28:26.741Z,6.50
2023-04-25T02:29:29.246Z,8.50
2023-04-25T02:30:30.680Z,7.50
2023-04-25T02:31:33.144Z,5.50
2023-04-25T02:32:35.218Z,8.00
2023-04-25T02:33:37.704Z,7.50
2023-04-25T02:34:39.143Z,8.00
2023-04-25T02:35:41.671Z,6.00
2023-04-25T02:36:43.080Z,6.50
2023-04-25T02:37:45.501Z,7.50
2023-04-25T02:38:46.904Z,10.00
2023-04-25T02:39:50.792Z,8.50
2023-04-25T02:40:52.196Z,10.00
2023-04-25T02:41:54.689Z,7.50
2023-04-25T02:42:56.106Z,6.00
2023-04-25T02:43:58.466Z,8.50
2023-04-25T02:44:59.903Z,8.00
2023-04-25T02:46:02.418Z,12.00
2023-04-25T02:47:04.067Z,8.00
2023-04-25T02:48:06.869Z,10.75
2023-04-25T02:49:08.286Z,11.00
2023-04-25T02:50:11.051Z,8.00
2023-04-25T02:51:13.020Z,8.00
2023-04-25T02:52:15.528Z,13.00
2023-04-25T02:53:17.001Z,13.00
2023-04-25T02:54:19.584Z,8.00
2023-04-25T02:55:23.963Z,14.50
2023-04-25T02:56:27.735Z,15.75
2023-04-25T02:57:30.328Z,13.50
2023-04-25T02:58:31.908Z,9.00
2023-04-25T02:59:34.267Z,8.50
2023-04-25T03:00:35.683Z,8.50
2023-04-25T03:01:38.085Z,7.50
2023-04-25T03:02:39.562Z,8.00
2023-04-25T03:03:42.055Z,6.00
2023-04-25T03:04:43.590Z,8.50
2023-04-25T03:05:46.051Z,8.50
2023-04-25T03:06:47.455Z,6.00
2023-04-25T03:07:49.821Z,9.00
2023-04-25T03:08:51.305Z,6.00
2023-04-25T03:09:53.676Z,6.00
2023-04-25T03:10:56.576Z,5.25
2023-04-25T03:11:58.946Z,5.25
2023-04-25T03:13:00.349Z,6.00
2023-04-25T03:14:02.736Z,7.00
2023-04-25T03:15:04.730Z,6.00
2023-04-25T03:16:07.407Z,5.00
2023-04-25T03:17:08.815Z,5.00
2023-04-25T03:18:11.255Z,5.00
2023-04-25T03:19:12.727Z,5.00
2023-04-25T03:20:15.127Z,4.75
2023-04-25T03:21:16.678Z,4.75
2023-04-25T03:22:19.039Z,7.00
2023-04-25T03:23:20.461Z,6.00
2023-04-25T03:24:23.138Z,5.25
2023-04-25T03:25:24.559Z,5.75
2023-04-25T03:26:28.304Z,6.50
2023-04-25T03:27:29.726Z,5.00
2023-04-25T03:28:32.093Z,4.75
2023-04-25T03:29:33.563Z,6.50
2023-04-25T03:30:35.956Z,6.00
2023-04-25T03:31:37.405Z,5.25
2023-04-25T03:32:39.861Z,5.25
2023-04-25T03:33:41.270Z,5.25
2023-04-25T03:34:43.669Z,5.25
2023-04-25T03:35:45.069Z,5.50
2023-04-25T03:36:47.459Z,6.00
2023-04-25T03:37:49.267Z,5.00
2023-04-25T03:38:51.654Z,6.00
2023-04-25T03:39:53.062Z,6.00
2023-04-25T03:40:57.045Z,5.75
2023-04-25T03:41:59.809Z,5.00
2023-04-25T03:43:02.238Z,6.00
2023-04-25T03:44:03.760Z,6.00
2023-04-25T03:45:06.703Z,6.00
2023-04-25T03:46:08.126Z,4.50
2023-04-25T03:47:10.621Z,5.25
2023-04-25T03:48:12.155Z,5.50
2023-04-25T03:49:17.052Z,5.50
2023-04-25T03:50:20.145Z,5.00
2023-04-25T03:51:22.529Z,5.00
2023-04-25T03:52:23.933Z,7.00
2023-04-25T03:53:26.309Z,6.50
2023-04-25T03:54:27.749Z,4.75
2023-04-25T03:55:30.124Z,6.00
2023-04-25T03:56:31.513Z,6.25
2023-04-25T03:57:35.258Z,6.00
2023-04-25T03:58:36.646Z,6.00
2023-04-25T03:59:39.018Z,7.50
2023-04-25T04:00:40.416Z,5.00
2023-04-25T04:01:42.785Z,6.00
2023-04-25T04:02:45.604Z,4.75
2023-04-25T04:03:48.336Z,4.75
2023-04-25T04:04:51.348Z,6.00
2023-04-25T04:05:53.229Z,6.00
2023-04-25T04:06:56.304Z,6.00
2023-04-25T04:07:57.720Z,5.50
2023-04-25T04:09:00.158Z,6.00
2023-04-25T04:10:01.571Z,6.00
2023-04-25T04:11:03.965Z,6.00
2023-04-25T04:12:05.600Z,5.25
2023-04-25T04:13:09.338Z,5.75
2023-04-25T04:14:11.902Z,5.50
2023-04-25T04:15:13.437Z,6.00
2023-04-25T04:16:15.923Z,6.00
2023-04-25T04:17:17.377Z,5.75
2023-04-25T04:18:19.734Z,6.00
2023-04-25T04:19:21.345Z,6.00
2023-04-25T04:20:23.769Z,6.00
2023-04-25T04:21:25.286Z,6.00
2023-04-25T04:22:27.739Z,6.00
2023-04-25T04:23:29.187Z,6.00
2023-04-25T04:24:31.543Z,5.75
2023-04-25T04:25:32.969Z,6.00
2023-04-25T04:26:35.736Z,6.00
2023-04-25T04:27:37.150Z,8.00
2023-04-25T04:28:41.029Z,8.00
2023-04-25T04:29:42.422Z,6.00
2023-04-25T04:30:47.948Z,6.00
2023-04-25T04:31:50.731Z,5.00
2023-04-25T04:32:52.323Z,6.00
2023-04-25T04:33:54.732Z,6.00
2023-04-25T04:34:56.337Z,6.00
2023-04-25T04:35:58.842Z,5.75
2023-04-25T04:37:01.317Z,8.25
2023-04-25T04:38:03.741Z,8.00
2023-04-25T04:39:05.290Z,9.75
2023-04-25T04:40:08.334Z,6.00
2023-04-25T04:41:09.851Z,8.50
2023-04-25T04:42:12.449Z,9.75
2023-04-25T04:43:14.296Z,8.00
2023-04-25T04:44:18.041Z,8.75
2023-04-25T04:45:19.567Z,5.00
2023-04-25T04:46:22.585Z,7.50
2023-04-25T04:47:24.656Z,9.75
2023-04-25T04:48:27.154Z,8.00
2023-04-25T04:49:28.576Z,8.00
2023-04-25T04:50:33.408Z,8.00
2023-04-25T04:51:34.848Z,6.50
2023-04-25T04:52:37.382Z,6.00
2023-04-25T04:53:38.841Z,8.50
2023-04-25T04:54:41.224Z,6.00
2023-04-25T04:55:42.890Z,8.50
2023-04-25T04:56:45.270Z,9.00
2023-04-25T04:57:46.679Z,8.50
2023-04-25T04:58:50.086Z,8.00
2023-04-25T04:59:54.286Z,8.25
2023-04-25T05:00:56.177Z,8.00
2023-04-25T05:01:58.593Z,9.75
2023-04-25T05:03:00.086Z,8.25
2023-04-25T05:04:03.758Z,8.00
2023-04-25T05:05:05.716Z,7.00
2023-04-25T05:06:09.747Z,8.00
2023-04-25T05:07:11.170Z,9.25
2023-04-25T05:08:13.592Z,8.00
2023-04-25T05:09:15.968Z,9.75
2023-04-25T05:10:18.560Z,7.00
2023-04-25T05:11:20.004Z,9.50
2023-04-25T05:12:22.592Z,8.00
2023-04-25T05:13:24.010Z,10.00
2023-04-25T05:14:26.400Z,8.00
2023-04-25T05:15:29.133Z,9.75
2023-04-25T05:16:31.535Z,9.75
2023-04-25T05:17:33.637Z,11.00
2023-04-25T05:18:36.469Z,10.00
2023-04-25T05:19:37.936Z,9.50
2023-04-25T05:20:40.369Z,10.50
2023-04-25T05:21:41.764Z,9.75
2023-04-25T05:22:44.134Z,9.75
2023-04-25T05:23:45.549Z,10.75
2023-04-25T05:24:49.191Z,11.00
2023-04-25T05:25:50.606Z,10.50
2023-04-25T05:26:52.969Z,11.00
2023-04-25T05:27:55.453Z,10.75
2023-04-25T05:28:56.854Z,11.00
2023-04-25T05:29:59.271Z,12.00
2023-04-25T05:31:02.111Z,9.75
2023-04-25T05:32:04.752Z,12.00
2023-04-25T05:33:06.254Z,11.00
2023-04-25T05:34:08.833Z,9.00
2023-04-25T05:35:10.483Z,10.75
2023-04-25T05:36:13.101Z,11.00
2023-04-25T05:37:14.891Z,12.00
2023-04-25T05:38:17.530Z,9.75
2023-04-25T05:39:19.100Z,11.25
2023-04-25T05:40:22.265Z,8.00
2023-04-25T05:41:23.687Z,9.75
2023-04-25T05:42:26.236Z,10.50
2023-04-25T05:43:27.683Z,11.00
2023-04-25T05:44:32.130Z,8.00
2023-04-25T05:45:35.077Z,9.75
2023-04-25T05:46:39.676Z,8.50
2023-04-25T05:47:41.980Z,10.25
2023-04-25T05:48:45.039Z,9.50
2023-04-25T05:49:46.714Z,10.50
2023-04-25T05:50:50.094Z,11.00
2023-04-25T05:51:53.353Z,9.50
2023-04-25T05:52:56.536Z,9.75
2023-04-25T05:53:58.381Z,11.50
2023-04-25T05:55:01.398Z,9.00
2023-04-25T05:56:04.672Z,9.25
2023-04-25T05:57:07.336Z,8.25
2023-04-25T05:58:09.166Z,8.00
2023-04-25T05:59:11.942Z,11.00
2023-04-25T06:00:14.554Z,6.00
2023-04-25T06:01:17.627Z,8.00
2023-04-25T06:02:21.533Z,7.75
2023-04-25T06:03:24.713Z,8.00
2023-04-25T06:04:27.003Z,11.00
2023-04-25T06:05:30.753Z,9.00
2023-04-25T06:06:34.057Z,8.00
2023-04-25T06:07:38.596Z,9.00
2023-04-25T06:08:41.421Z,7.00
2023-04-25T06:09:42.814Z,9.00
2023-04-25T06:10:45.241Z,8.00
2023-04-25T06:11:46.658Z,8.50
2023-04-25T06:12:49.069Z,10.75
2023-04-25T06:13:50.737Z,11.00
2023-04-25T06:14:53.454Z,10.25
2023-04-25T06:15:54.864Z,8.50
2023-04-25T06:16:57.275Z,12.75
2023-04-25T06:18:00.089Z,10.50
2023-04-25T06:19:02.511Z,8.00
2023-04-25T06:20:06.843Z,7.75
2023-04-25T06:21:09.419Z,8.00
2023-04-25T06:22:11.047Z,8.75
2023-04-25T06:23:13.438Z,7.00
2023-04-25T06:24:14.836Z,6.00
2023-04-25T06:25:17.308Z,9.00
2023-04-25T06:26:20.324Z,6.50
2023-04-25T06:27:21.726Z,6.00
2023-04-25T06:28:25.359Z,10.00
2023-04-25T06:29:26.800Z,7.50
2023-04-25T06:30:29.249Z,6.00
2023-04-25T06:31:33.441Z,8.00
2023-04-25T06:32:36.043Z,9.00
2023-04-25T06:33:38.828Z,6.50
2023-04-25T06:34:41.210Z,5.00
2023-04-25T06:35:42.604Z,7.75
2023-04-25T06:36:45.459Z,6.00
2023-04-25T06:37:46.913Z,7.00
2023-04-25T06:38:49.498Z,6.00
2023-04-25T06:39:51.104Z,6.00
2023-04-25T06:40:53.491Z,7.75
2023-04-25T06:41:54.924Z,6.50
2023-04-25T06:42:57.442Z,6.50
2023-04-25T06:43:59.861Z,6.00
2023-04-25T06:45:01.358Z,6.00
2023-04-25T06:46:03.793Z,7.50
2023-04-25T06:47:05.367Z,6.00
2023-04-25T06:48:07.975Z,7.00
2023-04-25T06:49:11.822Z,6.00
2023-04-25T06:50:13.303Z,7.75
2023-04-25T06:51:15.659Z,7.25
2023-04-25T06:52:18.897Z,8.75
2023-04-25T06:53:21.316Z,8.75
2023-04-25T06:54:22.821Z,7.50
2023-04-25T06:55:25.444Z,7.00
2023-04-25T06:56:26.893Z,6.75
2023-04-25T06:57:29.287Z,6.00
2023-04-25T06:58:30.821Z,6.50
2023-04-25T06:59:33.758Z,7.75
2023-04-25T07:00:35.277Z,7.00
2023-04-25T07:01:37.720Z,6.00
2023-04-25T07:02:39.448Z,6.00
2023-04-25T07:03:42.129Z,6.75
2023-04-25T07:04:46.286Z,6.00
2023-04-25T07:05:48.754Z,4.50
2023-04-25T07:06:50.597Z,4.00
2023-04-25T07:07:52.996Z,4.00
2023-04-25T07:08:54.510Z,3.00
2023-04-25T07:09:56.894Z,6.00
2023-04-25T07:10:59.267Z,4.00
2023-04-25T07:12:02.132Z,5.50
2023-04-25T07:13:04.526Z,6.00
2023-04-25T07:14:05.931Z,4.00
2023-04-25T07:15:11.009Z,6.00
2023-04-25T07:16:12.465Z,4.00
2023-04-25T07:17:14.904Z,6.00
2023-04-25T07:18:16.424Z,4.50
2023-04-25T07:19:18.824Z,4.50
2023-04-25T07:20:22.564Z,6.00
2023-04-25T07:21:23.967Z,5.50
2023-04-25T07:22:27.419Z,6.00
2023-04-25T07:23:29.818Z,4.50
2023-04-25T07:24:31.313Z,7.25
2023-04-25T07:25:33.837Z,6.00
2023-04-25T07:26:36.232Z,6.00
2023-04-25T07:27:37.682Z,6.00
2023-04-25T07:28:40.096Z,6.00
2023-04-25T07:29:41.598Z,4.00
2023-04-25T07:30:43.986Z,6.00
2023-04-25T07:31:45.565Z,5.00
2023-04-25T07:32:48.031Z,5.50
2023-04-25T07:33:50.559Z,4.00
2023-04-25T07:34:52.248Z,4.00
2023-04-25T07:35:55.980Z,4.00
2023-04-25T07:36:58.586Z,3.75
2023-04-25T07:38:00.188Z,4.50
2023-04-25T07:39:02.724Z,4.00
2023-04-25T07:40:04.866Z,4.50
2023-04-25T07:41:07.273Z,5.50
2023-04-25T07:42:09.079Z,7.00
2023-04-25T07:43:13.223Z,7.00
2023-04-25T07:44:15.718Z,6.25
2023-04-25T07:45:17.460Z,9.00
2023-04-25T07:46:19.929Z,6.75
2023-04-25T07:47:21.520Z,6.00
2023-04-25T07:48:23.943Z,6.00
2023-04-25T07:49:26.702Z,4.50
2023-04-25T07:50:28.093Z,6.00
2023-04-25T07:51:32.518Z,4.00
2023-04-25T07:52:33.922Z,5.50
2023-04-25T07:53:38.474Z,4.00
2023-04-25T07:54:39.896Z,6.00
2023-04-25T07:55:42.260Z,6.00
2023-04-25T07:56:51.943Z,5.50
2023-04-25T07:57:55.952Z,4.50
2023-04-25T07:58:57.378Z,4.00
2023-04-25T07:59:59.759Z,4.00
2023-04-25T08:01:01.222Z,5.00
2023-04-25T08:02:03.631Z,3.75
2023-04-25T08:03:05.253Z,4.00
2023-04-25T08:04:08.004Z,3.75
2023-04-25T08:05:13.093Z,4.00
2023-04-25T08:06:15.905Z,6.00
2023-04-25T08:07:18.757Z,5.50
2023-04-25T08:08:21.148Z,6.00
2023-04-25T08:09:22.541Z,6.25
2023-04-25T08:10:24.933Z,4.00
2023-04-25T08:11:26.369Z,6.00
2023-04-25T08:12:28.753Z,5.00
2023-04-25T08:13:30.278Z,3.75
2023-04-25T08:14:36.888Z,4.50
2023-04-25T08:15:39.541Z,4.50
2023-04-25T08:16:40.977Z,4.00
2023-04-25T08:17:44.835Z,6.75
2023-04-25T08:18:46.411Z,3.00
2023-04-25T08:19:48.905Z,4.00
2023-04-25T08:20:51.465Z,4.00
2023-04-25T08:21:53.876Z,5.75
2023-04-25T08:22:57.623Z,4.00
2023-04-25T08:23:59.467Z,4.50
2023-04-25T08:25:02.222Z,4.75
2023-04-25T08:26:03.701Z,3.25
2023-04-25T08:27:07.570Z,4.00
2023-04-25T08:28:10.356Z,4.00
2023-04-25T08:29:11.812Z,3.00
2023-04-25T08:30:14.409Z,4.75
2023-04-25T08:31:15.978Z,4.00
2023-04-25T08:32:18.454Z,5.00
2023-04-25T08:33:20.015Z,4.75
2023-04-25T08:34:22.557Z,3.75
2023-04-25T08:35:24.007Z,4.75
2023-04-25T08:36:38.521Z,4.00
2023-04-25T08:37:42.503Z,4.00
2023-04-25T08:38:46.286Z,4.00
2023-04-25T08:39:49.247Z,3.75
2023-04-25T08:40:52.314Z,2.00
2023-04-25T08:41:53.829Z,2.00
2023-04-25T08:42:56.304Z,2.00
2023-04-25T08:43:57.844Z,4.00
2023-04-25T08:45:00.297Z,3.00
2023-04-25T08:46:02.899Z,4.00
2023-04-25T08:47:05.026Z,2.50
2023-04-25T08:48:07.606Z,2.00
2023-04-25T08:49:10.787Z,3.00
2023-04-25T08:50:13.513Z,4.50
2023-04-25T08:51:16.675Z,3.00
2023-04-25T08:52:19.070Z,4.00
2023-04-25T08:53:23.596Z,3.50
2023-04-25T08:54:34.660Z,4.00
2023-04-25T08:55:38.623Z,4.75
2023-04-25T08:56:40.084Z,4.00
2023-04-25T08:57:43.701Z,4.00
2023-04-25T08:58:46.865Z,2.50
2023-04-25T08:59:49.270Z,4.00
2023-04-25T09:00:51.799Z,3.25
2023-04-25T09:01:53.286Z,2.00
2023-04-25T09:02:56.188Z,2.75
2023-04-25T09:03:58.293Z,5.00
2023-04-25T09:05:00.730Z,5.00
2023-04-25T09:06:02.269Z,4.75
2023-04-25T09:07:04.927Z,4.00
2023-04-25T09:08:07.406Z,4.00
2023-04-25T09:09:11.613Z,3.75
2023-04-25T09:10:15.347Z,4.00
2023-04-25T09:11:19.508Z,5.75
2023-04-25T09:12:22.908Z,4.00
2023-04-25T09:13:28.648Z,4.00
2023-04-25T09:14:30.079Z,5.75
2023-04-25T09:15:32.472Z,5.00
2023-04-25T09:16:36.593Z,7.00
2023-04-25T09:17:42.723Z,7.50
2023-04-25T09:18:48.506Z,4.25
2023-04-25T09:19:52.017Z,4.00
2023-04-25T09:21:59.750Z,4.25
2023-04-25T09:23:05.952Z,4.00
2023-04-25T09:24:07.675Z,4.00
2023-04-25T09:25:10.418Z,5.00
2023-04-25T09:26:14.167Z,4.00
2023-04-25T09:27:18.748Z,4.00
2023-04-25T09:28:24.948Z,4.00
2023-04-25T09:29:32.706Z,4.25
2023-04-25T09:30:35.863Z,4.00
2023-04-25T09:31:37.597Z,4.00
2023-04-25T09:32:40.159Z,3.75
2023-04-25T09:33:42.609Z,3.00
2023-04-25T09:34:44.384Z,4.00
2023-04-25T09:35:47.142Z,5.75
2023-04-25T09:36:48.668Z,6.00
2023-04-25T09:37:51.063Z,4.50
2023-04-25T09:38:53.508Z,5.75
2023-04-25T09:39:55.539Z,4.00
2023-04-25T09:40:58.065Z,4.50
2023-04-25T09:42:00.877Z,5.75
2023-04-25T09:43:03.854Z,4.00
2023-04-25T09:44:06.590Z,3.00
2023-04-25T09:45:09.605Z,4.50
2023-04-25T09:46:12.201Z,4.00
2023-04-25T09:47:15.091Z,4.00
2023-04-25T09:48:19.002Z,4.00
2023-04-25T09:49:20.774Z,5.00
2023-04-25T09:50:25.613Z,4.00
2023-04-25T09:51:27.053Z,3.25
2023-04-25T09:52:29.512Z,4.00
2023-04-25T09:53:31.181Z,5.00
2023-04-25T09:54:33.546Z,4.00
2023-04-25T09:55:36.108Z,6.00
2023-04-25T09:56:37.714Z,4.00
2023-04-25T09:57:41.722Z,4.00
2023-04-25T09:58:43.158Z,6.00
2023-04-25T09:59:45.974Z,7.00
2023-04-25T10:00:47.411Z,5.50
2023-04-25T10:01:50.060Z,5.00
2023-04-25T10:02:51.707Z,5.50
2023-04-25T10:03:54.220Z,6.00
2023-04-25T10:04:57.231Z,6.00
2023-04-25T10:06:00.387Z,6.75
2023-04-25T10:07:02.938Z,6.00
2023-04-25T10:08:05.945Z,6.50
2023-04-25T10:09:08.686Z,6.50
2023-04-25T10:10:11.168Z,6.25
2023-04-25T10:11:15.366Z,6.25
2023-04-25T10:12:17.832Z,6.75
2023-04-25T10:13:21.794Z,6.75
2023-04-25T10:14:24.726Z,5.00
2023-04-25T10:15:27.109Z,6.25
2023-04-25T10:16:28.867Z,6.50
2023-04-25T10:17:31.395Z,6.00
2023-04-25T10:18:33.234Z,4.00
2023-04-25T10:19:35.636Z,6.00
2023-04-25T10:20:38.066Z,6.25
2023-04-25T10:21:41.634Z,6.50
2023-04-25T10:22:44.718Z,7.00
2023-04-25T10:23:47.228Z,7.00
2023-04-25T10:24:50.846Z,6.00
2023-04-25T10:25:52.690Z,7.50
2023-04-25T10:26:55.413Z,6.75
2023-04-25T10:27:57.816Z,7.00
2023-04-25T10:29:00.960Z,6.75
2023-04-25T10:30:05.400Z,7.00
2023-04-25T10:31:08.505Z,7.00
2023-04-25T10:32:11.124Z,7.00
2023-04-25T10:33:17.454Z,6.75
2023-04-25T10:34:19.885Z,9.50
2023-04-25T10:35:26.007Z,6.25
2023-04-25T10:36:30.146Z,5.75
2023-04-25T10:37:31.908Z,6.00
2023-04-25T10:38:34.306Z,6.00
2023-04-25T10:39:36.732Z,6.00
2023-04-25T10:40:38.156Z,5.75
2023-04-25T10:41:50.183Z,5.50
2023-04-25T10:42:53.781Z,4.00
2023-04-25T10:44:02.451Z,4.50
2023-04-25T10:45:06.643Z,4.50
2023-04-25T10:46:13.991Z,4.25
2023-04-25T10:47:16.416Z,4.00
2023-04-25T10:48:25.625Z,4.00
2023-04-25T10:49:34.722Z,5.75
2023-04-25T10:50:39.228Z,4.25
2023-04-25T10:51:54.301Z,4.00
2023-04-25T10:52:56.962Z,4.00
2023-04-25T10:53:59.750Z,4.00
2023-04-25T10:55:02.517Z,4.25
2023-04-25T10:56:11.911Z,5.00
2023-04-25T10:57:34.375Z,4.00
2023-04-25T10:58:36.827Z,4.50
2023-04-25T10:59:40.571Z,4.00
2023-04-25T11:00:56.929Z,4.25
2023-04-25T11:01:59.233Z,5.75
2023-04-25T11:03:02.097Z,2.25
2023-04-25T11:04:05.446Z,4.00
2023-04-25T11:05:08.811Z,2.00
2023-04-25T11:06:12.664Z,4.00
2023-04-25T11:07:15.980Z,4.00
2023-04-25T11:08:18.389Z,4.50
2023-04-25T11:09:19.780Z,4.00
2023-04-25T11:10:22.154Z,4.00
2023-04-25T11:11:23.562Z,4.50
2023-04-25T11:12:26.556Z,4.25
2023-04-25T11:13:31.085Z,4.00
2023-04-25T11:14:32.727Z,2.75
2023-04-25T11:15:36.552Z,3.50
2023-04-25T11:16:38.215Z,4.25
2023-04-25T11:17:41.481Z,4.00
2023-04-25T11:18:43.164Z,2.75
2023-04-25T11:19:45.545Z,4.00
2023-04-25T11:20:47.490Z,2.75
2023-04-25T11:21:49.891Z,4.25
2023-04-25T11:22:52.849Z,5.25
2023-04-25T11:23:54.624Z,4.50
2023-04-25T11:24:57.150Z,4.00
2023-04-25T11:26:01.504Z,4.00
2023-04-25T11:27:03.500Z,5.75
2023-04-25T11:28:06.017Z,5.00
2023-04-25T11:29:07.417Z,4.00
2023-04-25T11:30:16.941Z,4.00
2023-04-25T11:31:22.638Z,4.00
2023-04-25T11:32:25.624Z,4.00
2023-04-25T11:33:29.043Z,5.75
2023-04-25T11:34:32.093Z,4.50
2023-04-25T11:35:34.697Z,4.00
2023-04-25T11:36:36.163Z,5.00
2023-04-25T11:37:38.653Z,5.00
2023-04-25T11:38:40.978Z,3.00
2023-04-25T11:39:47.382Z,4.00
2023-04-25T11:40:51.497Z,5.00
2023-04-25T11:41:53.001Z,5.00
2023-04-25T11:42:55.605Z,5.00
2023-04-25T11:43:57.029Z,4.00
2023-04-25T11:44:59.752Z,4.00
2023-04-25T11:46:01.552Z,5.00
2023-04-25T11:47:05.353Z,4.75
2023-04-25T11:48:07.834Z,5.00
2023-04-25T11:49:09.244Z,4.00
2023-04-25T11:50:11.975Z,4.00
2023-04-25T11:51:14.431Z,2.50
2023-04-25T11:52:17.025Z,4.00
2023-04-25T11:53:19.635Z,3.25
2023-04-25T11:54:21.284Z,4.00
2023-04-25T11:55:23.710Z,2.75
2023-04-25T11:56:25.134Z,3.25
2023-04-25T11:57:27.539Z,4.00
2023-04-25T11:58:28.951Z,4.00
2023-04-25T11:59:31.350Z,2.25
2023-04-25T12:00:32.934Z,3.00
2023-04-25T12:01:36.091Z,2.00
2023-04-25T12:02:40.261Z,4.00
2023-04-25T12:03:47.728Z,3.75
2023-04-25T12:04:50.852Z,2.00
2023-04-25T12:05:53.855Z,4.00
2023-04-25T12:06:55.637Z,4.00
2023-04-25T12:07:58.302Z,2.00
2023-04-25T12:09:00.215Z,2.00
2023-04-25T12:10:06.007Z,2.00
2023-04-25T12:11:08.415Z,2.50
2023-04-25T12:12:11.577Z,2.00
2023-04-25T12:13:19.753Z,2.00
2023-04-25T12:14:22.884Z,3.50
2023-04-25T12:15:25.680Z,2.00
2023-04-25T12:16:27.189Z,2.00
2023-04-25T12:17:30.485Z,2.00
2023-04-25T12:18:34.217Z,2.00
2023-04-25T12:19:36.023Z,4.00
2023-04-25T12:20:38.395Z,2.00
2023-04-25T12:21:50.511Z,4.00
2023-04-25T12:23:01.202Z,2.00
2023-04-25T12:24:13.177Z,2.00
2023-04-25T12:25:15.910Z,2.25
2023-04-25T12:26:21.031Z,2.00
2023-04-25T12:27:23.420Z,2.00
2023-04-25T12:28:28.081Z,3.25
2023-04-25T12:29:34.840Z,2.00
2023-04-25T12:31:00.146Z,2.00
2023-04-25T12:32:03.437Z,2.75
2023-04-25T12:33:04.915Z,2.00
2023-04-25T12:34:08.899Z,2.00
2023-04-25T12:35:11.651Z,1.50
2023-04-25T12:36:14.531Z,2.50
2023-04-25T12:37:17.050Z,3.00
2023-04-25T12:38:21.819Z,4.00
2023-04-25T12:39:24.466Z,2.50
2023-04-25T12:40:26.066Z,2.00
2023-04-25T12:41:28.545Z,3.00
2023-04-25T12:42:30.939Z,2.00
2023-04-25T12:43:32.371Z,4.00
2023-04-25T12:44:34.747Z,2.00
2023-04-25T12:45:36.197Z,3.50
2023-04-25T12:46:38.663Z,2.00
2023-04-25T12:47:40.096Z,4.00
2023-04-25T12:48:42.552Z,2.00
2023-04-25T12:49:46.269Z,2.50
2023-04-25T12:50:49.869Z,4.00
2023-04-25T12:51:52.715Z,2.00
2023-04-25T12:52:54.124Z,3.50
2023-04-25T12:53:56.770Z,2.00
2023-04-25T12:54:59.137Z,2.00
2023-04-25T12:56:00.578Z,2.00
2023-04-25T12:57:03.832Z,2.00
2023-04-25T12:58:05.302Z,4.00
2023-04-25T12:59:07.700Z,2.00
2023-04-25T13:00:11.409Z,2.00
2023-04-25T13:01:13.558Z,2.00
2023-04-25T13:02:16.086Z,2.00
2023-04-25T13:03:17.809Z,2.00
2023-04-25T13:04:22.141Z,2.00
2023-04-25T13:05:26.083Z,2.00
2023-04-25T13:06:28.138Z,2.00
2023-04-25T13:07:31.115Z,2.00
2023-04-25T13:08:32.537Z,2.00
2023-04-25T13:09:34.922Z,3.50
2023-04-25T13:10:39.369Z,2.00
2023-04-25T13:11:42.461Z,2.00
2023-04-25T13:12:44.906Z,4.00
2023-04-25T13:13:46.357Z,2.00
2023-04-25T13:14:48.794Z,2.00
2023-04-25T13:15:50.194Z,2.00
2023-04-25T13:16:52.622Z,2.00
2023-04-25T13:17:54.130Z,4.00
2023-04-25T13:18:57.171Z,2.00
2023-04-25T13:19:58.733Z,2.00
2023-04-25T13:21:02.724Z,2.50
2023-04-25T13:22:05.616Z,2.00
2023-04-25T13:23:07.066Z,2.00
2023-04-25T13:24:09.460Z,3.50
2023-04-25T13:25:10.963Z,2.00
2023-04-25T13:26:13.351Z,2.00
2023-04-25T13:27:15.728Z,3.50
2023-04-25T13:28:17.157Z,2.50
2023-04-25T13:29:19.537Z,2.50
2023-04-25T13:30:21.203Z,3.00
2023-04-25T13:31:23.623Z,2.00
2023-04-25T13:32:25.075Z,2.00
2023-04-25T13:33:27.773Z,4.00
2023-04-25T13:34:29.168Z,4.00
2023-04-25T13:35:31.549Z,2.00
2023-04-25T13:36:35.330Z,3.00
2023-04-25T13:37:36.765Z,4.00
2023-04-25T13:38:40.008Z,2.00
2023-04-25T13:39:42.389Z,2.00
2023-04-25T13:40:43.804Z,2.00
2023-04-25T13:41:46.217Z,2.00
2023-04-25T13:42:47.678Z,3.00
2023-04-25T13:43:50.408Z,4.00
2023-04-25T13:44:51.958Z,3.00
2023-04-25T13:45:54.386Z,2.00
2023-04-25T13:46:56.803Z,2.00
2023-04-25T13:47:58.320Z,2.00
2023-04-25T13:49:11.527Z,2.50
2023-04-25T13:50:16.777Z,2.00
2023-04-25T13:51:19.168Z,2.00
2023-04-25T13:52:21.916Z,2.00
2023-04-25T13:53:25.441Z,3.50
2023-04-25T13:54:26.878Z,2.00
2023-04-25T13:55:29.327Z,2.00